Quathiaski Cove, Canada
Current Conditions -  °F | °C
As of 9:00 PM on Saturday 22 Nov 2014 (Local Time) from CYBL Reporting Station
Haze Haze  
Wind Chill: 34°   Ceiling: 18000
Heat Index: 34°   Visibility: 6mi
Dew Point: 34°   Wind: 3mph
Humidity: 100%   Direction: 270°W
Pressure: 29.96"   Gusts: NA
Location:  50.05°N, 125.18°W
Report Text: CYBL 230500Z 27003KT 6SM BR FEW060 BKN180 01/01 A2996 RMK SC2AC3 LAST OBS/NEXT 231400 UTC SLP151
Loading
Personal Weather Stations






























Interactive Weather Map New forecast layout! Learn more

10-Day Weather Forecast

Advertisements
Track Severe Weather on mobile